createdAt,value
2023-01-30T00:02:21.150Z,24.36
2023-01-30T00:04:48.370Z,24.42
2023-01-30T00:07:15.506Z,23.60
2023-01-30T00:09:42.682Z,24.10
2023-01-30T00:12:09.883Z,23.67
2023-01-30T00:14:38.587Z,23.50
2023-01-30T00:17:05.741Z,23.05
2023-01-30T00:19:32.865Z,22.50
2023-01-30T00:22:00.263Z,22.63
2023-01-30T00:24:27.588Z,22.44
2023-01-30T00:26:54.863Z,23.01
2023-01-30T00:29:21.989Z,23.54
2023-01-30T00:31:50.643Z,23.36
2023-01-30T00:34:17.963Z,22.55
2023-01-30T00:36:47.715Z,23.82
2023-01-30T00:39:16.643Z,24.66
2023-01-30T00:41:43.763Z,24.50
2023-01-30T00:44:10.863Z,23.23
2023-01-30T00:46:38.087Z,22.28
2023-01-30T00:49:06.674Z,22.51
2023-01-30T00:51:33.823Z,22.77
2023-01-30T00:54:01.075Z,23.17
2023-01-30T00:56:28.422Z,22.62
2023-01-30T00:58:55.622Z,22.35
2023-01-30T01:01:22.790Z,22.45
2023-01-30T01:03:49.964Z,22.28
2023-01-30T01:06:18.591Z,21.92
2023-01-30T01:08:45.739Z,22.37
2023-01-30T01:11:12.870Z,22.58
2023-01-30T01:13:39.943Z,21.94
2023-01-30T01:16:07.306Z,22.31
2023-01-30T01:18:34.383Z,22.90
2023-01-30T01:21:01.545Z,22.56
2023-01-30T01:23:30.083Z,22.05
2023-01-30T01:26:01.627Z,23.37
2023-01-30T01:28:28.790Z,22.88
2023-01-30T01:30:56.000Z,24.29
2023-01-30T01:33:27.003Z,24.26
2023-01-30T01:35:55.984Z,24.08
2023-01-30T01:38:23.683Z,23.80
2023-01-30T01:40:52.266Z,23.10
2023-01-30T01:43:22.371Z,24.34
2023-01-30T01:45:55.887Z,25.09
2023-01-30T01:48:29.171Z,23.96
2023-01-30T01:51:01.784Z,24.31
2023-01-30T01:53:34.805Z,23.48
2023-01-30T01:56:06.026Z,24.33
2023-01-30T01:58:42.307Z,24.19
2023-01-30T02:01:09.413Z,24.79
2023-01-30T02:03:42.852Z,23.91
2023-01-30T02:06:14.015Z,23.51
2023-01-30T02:08:47.456Z,23.79
2023-01-30T02:11:27.374Z,23.65
2023-01-30T02:13:57.098Z,24.05
2023-01-30T02:16:24.340Z,24.48
2023-01-30T02:18:52.792Z,24.42
2023-01-30T02:21:51.568Z,24.56
2023-01-30T02:24:43.160Z,24.11
2023-01-30T02:27:48.583Z,24.28
2023-01-30T02:30:52.248Z,25.02
2023-01-30T02:33:34.506Z,23.86
2023-01-30T02:36:14.459Z,24.50
2023-01-30T02:38:54.162Z,24.29
2023-01-30T02:41:34.879Z,24.77
2023-01-30T02:44:06.741Z,24.87
2023-01-30T02:46:45.292Z,24.46
2023-01-30T02:49:20.966Z,25.54
2023-01-30T02:51:51.880Z,25.59
2023-01-30T02:54:19.123Z,24.78
2023-01-30T02:56:49.488Z,24.60
2023-01-30T02:59:24.399Z,25.20
2023-01-30T03:02:30.416Z,24.38
2023-01-30T03:05:21.166Z,24.51
2023-01-30T03:07:58.552Z,24.84
2023-01-30T03:10:37.725Z,25.05
2023-01-30T03:13:14.997Z,24.34
2023-01-30T03:15:50.168Z,24.88
2023-01-30T03:18:19.846Z,25.34
2023-01-30T03:20:47.649Z,25.34
2023-01-30T03:23:14.794Z,25.04
2023-01-30T03:25:46.389Z,24.06
2023-01-30T03:28:18.109Z,23.14
2023-01-30T03:30:45.267Z,24.09
2023-01-30T03:33:12.445Z,24.10
2023-01-30T03:35:41.400Z,24.50
2023-01-30T03:38:08.707Z,23.91
2023-01-30T03:40:35.925Z,23.20
2023-01-30T03:43:03.156Z,23.62
2023-01-30T03:45:30.273Z,23.52
2023-01-30T03:47:57.407Z,22.07
2023-01-30T03:50:24.665Z,22.26
2023-01-30T03:52:54.026Z,21.81
2023-01-30T03:55:21.241Z,21.44
2023-01-30T03:57:48.368Z,21.80
2023-01-30T04:00:16.771Z,21.31
2023-01-30T04:02:44.556Z,22.16
2023-01-30T04:05:11.648Z,21.49
2023-01-30T04:07:38.747Z,21.35
2023-01-30T04:10:08.576Z,21.13
2023-01-30T04:12:35.744Z,21.47
2023-01-30T04:15:02.845Z,21.84
2023-01-30T04:17:30.045Z,19.64
2023-01-30T04:19:57.129Z,19.68
2023-01-30T04:22:24.453Z,20.02
2023-01-30T04:24:51.592Z,20.87
2023-01-30T04:27:20.207Z,21.30
2023-01-30T04:29:47.284Z,21.27
2023-01-30T04:32:14.347Z,21.19
2023-01-30T04:34:41.506Z,22.24
2023-01-30T04:37:08.688Z,22.07
2023-01-30T04:39:35.987Z,21.86
2023-01-30T04:42:03.185Z,21.95
2023-01-30T04:44:31.830Z,21.78
2023-01-30T04:46:59.039Z,22.14
2023-01-30T04:49:26.367Z,21.21
2023-01-30T04:51:53.491Z,21.51
2023-01-30T04:54:21.004Z,21.29
2023-01-30T04:56:48.105Z,20.99
2023-01-30T04:59:15.709Z,22.12
2023-01-30T05:01:44.290Z,22.34
2023-01-30T05:04:11.785Z,21.80
2023-01-30T05:06:39.005Z,21.84
2023-01-30T05:09:07.145Z,22.26
2023-01-30T05:11:34.890Z,22.59
2023-01-30T05:14:02.085Z,22.51
2023-01-30T05:16:30.683Z,22.55
2023-01-30T05:18:59.311Z,22.71
2023-01-30T05:21:28.608Z,22.23
2023-01-30T05:23:56.809Z,22.06
2023-01-30T05:26:24.476Z,22.75
2023-01-30T05:28:53.203Z,22.90
2023-01-30T05:31:20.517Z,22.31
2023-01-30T05:33:50.156Z,22.14
2023-01-30T05:36:21.652Z,22.86
2023-01-30T05:38:48.906Z,22.64
2023-01-30T05:41:17.299Z,22.69
2023-01-30T05:43:48.785Z,21.71
2023-01-30T05:46:15.953Z,22.58
2023-01-30T05:48:43.104Z,23.47
2023-01-30T05:51:18.684Z,23.40
2023-01-30T05:53:46.545Z,24.20
2023-01-30T05:56:13.685Z,23.62
2023-01-30T05:58:41.567Z,23.20
2023-01-30T06:01:12.809Z,21.37
2023-01-30T06:03:40.158Z,23.07
2023-01-30T06:06:08.224Z,23.32
2023-01-30T06:08:36.940Z,24.01
2023-01-30T06:11:07.030Z,24.14
2023-01-30T06:13:34.896Z,23.89
2023-01-30T06:16:02.113Z,22.95
2023-01-30T06:18:29.507Z,25.17
2023-01-30T06:20:57.150Z,24.52
2023-01-30T06:23:24.608Z,24.33
2023-01-30T06:25:54.082Z,24.35
2023-01-30T06:28:23.027Z,24.59
2023-01-30T06:30:50.676Z,24.78
2023-01-30T06:33:18.525Z,24.03
2023-01-30T06:35:48.545Z,23.92
2023-01-30T06:38:15.685Z,24.08
2023-01-30T06:40:46.216Z,25.32
2023-01-30T06:43:15.999Z,24.66
2023-01-30T06:45:43.920Z,25.74
2023-01-30T06:48:11.909Z,24.35
2023-01-30T06:50:39.216Z,24.54
2023-01-30T06:53:08.602Z,24.64
2023-01-30T06:55:36.257Z,25.51
2023-01-30T06:58:06.311Z,26.45
2023-01-30T07:00:36.243Z,25.77
2023-01-30T07:03:03.759Z,24.71
2023-01-30T07:05:31.100Z,25.61
2023-01-30T07:07:58.459Z,25.82
2023-01-30T07:10:25.720Z,25.60
2023-01-30T07:12:53.039Z,25.08
2023-01-30T07:15:20.720Z,26.27
2023-01-30T07:17:49.701Z,26.32
2023-01-30T07:20:17.340Z,26.76
2023-01-30T07:22:50.809Z,25.65
2023-01-30T07:25:18.693Z,25.98
2023-01-30T07:27:50.880Z,26.84
2023-01-30T07:30:18.477Z,24.79
2023-01-30T07:32:51.679Z,25.99
2023-01-30T07:35:19.465Z,26.39
2023-01-30T07:37:47.761Z,27.07
2023-01-30T07:40:15.461Z,26.76
2023-01-30T07:42:42.908Z,26.32
2023-01-30T07:45:11.248Z,26.42
2023-01-30T07:47:38.549Z,26.11
2023-01-30T07:50:09.103Z,25.83
2023-01-30T07:52:36.245Z,26.38
2023-01-30T07:55:03.483Z,26.75
2023-01-30T07:57:30.680Z,25.17
2023-01-30T07:59:57.864Z,26.34
2023-01-30T08:02:25.100Z,28.08
2023-01-30T08:04:52.434Z,28.09
2023-01-30T08:07:21.101Z,28.08
2023-01-30T08:09:48.281Z,26.25
2023-01-30T08:12:15.400Z,27.23
2023-01-30T08:14:42.548Z,27.92
2023-01-30T08:17:09.822Z,28.04
2023-01-30T08:19:36.959Z,27.18
2023-01-30T08:22:04.140Z,27.74
2023-01-30T08:24:32.820Z,25.39
2023-01-30T08:27:00.040Z,25.59
2023-01-30T08:29:27.204Z,26.10
2023-01-30T08:31:58.266Z,25.28
2023-01-30T08:34:25.504Z,26.17
2023-01-30T08:36:53.064Z,25.81
2023-01-30T08:39:20.519Z,26.14
2023-01-30T08:41:49.219Z,25.76
2023-01-30T08:44:16.419Z,25.07
2023-01-30T08:46:43.609Z,26.39
2023-01-30T08:49:11.197Z,28.08
2023-01-30T08:51:38.739Z,26.56
2023-01-30T08:54:06.120Z,25.19
2023-01-30T08:56:33.479Z,18.17
2023-01-30T08:59:02.538Z,18.14
2023-01-30T09:01:29.802Z,18.39
2023-01-30T09:03:57.688Z,19.56
2023-01-30T09:06:26.276Z,19.75
2023-01-30T09:08:53.748Z,18.50
2023-01-30T09:11:20.939Z,19.21
2023-01-30T09:13:49.600Z,18.07
2023-01-30T09:16:18.681Z,18.59
2023-01-30T09:18:45.979Z,22.59
2023-01-30T09:21:14.088Z,25.32
2023-01-30T09:23:41.882Z,25.01
2023-01-30T09:26:09.061Z,25.35
2023-01-30T09:28:36.338Z,25.44
2023-01-30T09:31:04.145Z,23.21
2023-01-30T09:33:32.948Z,23.88
2023-01-30T09:36:00.177Z,23.95
2023-01-30T09:38:27.364Z,24.34
2023-01-30T09:41:31.487Z,24.81
2023-01-30T09:44:22.699Z,24.58
2023-01-30T09:46:58.300Z,22.57
2023-01-30T09:49:43.335Z,23.80
2023-01-30T09:52:27.351Z,23.94
2023-01-30T09:55:02.703Z,24.61
2023-01-30T09:57:30.104Z,24.03
2023-01-30T10:00:06.384Z,24.62
2023-01-30T10:02:47.801Z,23.69
2023-01-30T10:05:17.012Z,21.76
2023-01-30T10:08:09.682Z,22.09
2023-01-30T10:10:55.056Z,23.58
2023-01-30T10:13:50.744Z,21.55
2023-01-30T10:16:27.285Z,23.14
2023-01-30T10:19:35.171Z,23.42
2023-01-30T10:22:17.841Z,25.88
2023-01-30T10:24:59.304Z,25.61
2023-01-30T10:27:31.529Z,26.11
2023-01-30T10:30:04.847Z,27.42
2023-01-30T10:32:41.925Z,25.69
2023-01-30T10:35:19.279Z,26.20
2023-01-30T10:37:58.418Z,26.19
2023-01-30T10:40:33.845Z,26.64
2023-01-30T10:43:12.363Z,27.16
2023-01-30T10:45:50.551Z,27.85
2023-01-30T10:48:45.982Z,28.40
2023-01-30T10:51:25.659Z,28.56
2023-01-30T10:54:02.835Z,27.84
2023-01-30T10:56:39.883Z,27.68
2023-01-30T10:59:24.960Z,27.67
2023-01-30T11:02:02.901Z,28.78
2023-01-30T11:04:37.512Z,28.90
2023-01-30T11:07:05.104Z,28.69
2023-01-30T11:09:42.199Z,28.79
2023-01-30T11:12:09.461Z,30.07
2023-01-30T11:14:54.253Z,29.49
2023-01-30T11:17:30.428Z,28.70
2023-01-30T11:20:04.978Z,27.89
2023-01-30T11:22:35.741Z,26.82
2023-01-30T11:25:07.367Z,25.21
2023-01-30T11:27:35.442Z,24.64
2023-01-30T11:30:13.967Z,24.98
2023-01-30T11:32:43.701Z,24.99
2023-01-30T11:35:29.970Z,24.38
2023-01-30T11:38:13.002Z,24.92
2023-01-30T11:40:41.823Z,24.56
2023-01-30T11:43:13.338Z,24.41
2023-01-30T11:45:45.417Z,23.96
2023-01-30T11:48:33.260Z,24.48
2023-01-30T11:51:09.557Z,25.30
2023-01-30T11:53:41.657Z,24.28
2023-01-30T11:56:19.346Z,26.29
2023-01-30T11:58:56.964Z,24.51
2023-01-30T12:01:27.165Z,24.41
2023-01-30T12:03:56.818Z,23.75
2023-01-30T12:06:29.779Z,24.60
2023-01-30T12:08:58.712Z,25.08
2023-01-30T12:11:43.123Z,24.83
2023-01-30T12:14:25.735Z,24.75
2023-01-30T12:17:12.338Z,24.56
2023-01-30T12:19:52.571Z,24.95
2023-01-30T12:22:29.143Z,23.97
2023-01-30T12:25:00.188Z,23.95
2023-01-30T12:27:47.515Z,24.59
2023-01-30T12:30:30.564Z,25.06
2023-01-30T12:35:59.946Z,24.32
2023-01-30T12:38:41.677Z,24.73
2023-01-30T12:41:28.431Z,24.18
2023-01-30T12:44:19.030Z,24.76
2023-01-30T12:47:07.749Z,24.26
2023-01-30T12:50:02.636Z,24.41
2023-01-30T12:52:46.070Z,23.61
2023-01-30T12:55:30.784Z,24.49
2023-01-30T12:58:04.356Z,24.30
2023-01-30T13:00:50.926Z,23.59
2023-01-30T13:03:30.780Z,23.17
2023-01-30T13:06:11.039Z,23.76
2023-01-30T13:08:52.724Z,23.49
2023-01-30T13:11:41.781Z,23.64
2023-01-30T13:14:21.243Z,24.87
2023-01-30T13:17:24.699Z,23.86
2023-01-30T13:20:02.088Z,24.25
2023-01-30T13:22:38.634Z,23.98
2023-01-30T13:25:21.699Z,23.80
2023-01-30T13:27:55.813Z,23.66
2023-01-30T13:30:24.390Z,23.89
2023-01-30T13:32:58.710Z,23.57
2023-01-30T13:35:32.523Z,24.93
2023-01-30T13:38:03.391Z,23.87
2023-01-30T13:40:38.577Z,23.52
2023-01-30T13:43:16.391Z,24.68
2023-01-30T13:45:47.185Z,24.12
2023-01-30T13:48:33.479Z,24.29
2023-01-30T13:51:31.252Z,23.93
2023-01-30T13:54:06.930Z,23.36
2023-01-30T13:56:44.634Z,23.63
2023-01-30T13:59:22.796Z,24.48
2023-01-30T14:02:18.660Z,24.42
2023-01-30T14:04:52.774Z,24.79
2023-01-30T14:07:30.055Z,24.29
2023-01-30T14:10:14.473Z,24.84
2023-01-30T14:12:44.952Z,25.33
2023-01-30T14:15:29.939Z,17.83
2023-01-30T14:18:03.171Z,19.73
2023-01-30T14:20:35.420Z,21.24
2023-01-30T14:23:14.724Z,20.55
2023-01-30T14:25:48.737Z,22.89
2023-01-30T14:28:49.213Z,23.57
2023-01-30T14:31:47.360Z,24.32
2023-01-30T14:34:40.096Z,23.95
2023-01-30T14:37:30.332Z,25.06
2023-01-30T14:39:58.851Z,24.74
2023-01-30T14:42:28.232Z,25.01
2023-01-30T14:45:04.137Z,24.55
2023-01-30T14:47:43.398Z,25.99
2023-01-30T14:50:22.307Z,26.15
2023-01-30T14:52:56.815Z,27.12
2023-01-30T14:55:27.250Z,30.14
2023-01-30T14:57:59.077Z,25.69
2023-01-30T15:00:30.950Z,28.13
2023-01-30T15:03:03.470Z,26.17
2023-01-30T15:05:39.068Z,27.30
2023-01-30T15:08:16.133Z,27.23
2023-01-30T15:11:12.594Z,27.04
2023-01-30T15:13:48.839Z,26.67
2023-01-30T15:16:45.835Z,26.88
2023-01-30T15:19:46.332Z,27.20
2023-01-30T15:22:26.171Z,28.42
2023-01-30T15:25:33.652Z,26.91
2023-01-30T15:28:16.873Z,27.31
2023-01-30T15:30:55.669Z,28.22
2023-01-30T15:33:31.003Z,27.75
2023-01-30T15:35:59.530Z,27.29
2023-01-30T15:38:29.890Z,26.33
2023-01-30T15:41:01.878Z,26.70
2023-01-30T15:44:00.351Z,27.74
2023-01-30T15:46:42.453Z,30.40
2023-01-30T15:49:38.847Z,29.57
2023-01-30T15:52:14.981Z,27.80
2023-01-30T15:54:49.903Z,27.18
2023-01-30T15:57:29.779Z,27.63
2023-01-30T15:59:58.704Z,27.33
2023-01-30T16:02:31.586Z,27.87
2023-01-30T16:05:07.371Z,28.21
2023-01-30T16:07:34.558Z,27.89
2023-01-30T16:10:08.836Z,27.67
2023-01-30T16:12:37.477Z,27.74
2023-01-30T16:15:18.861Z,27.86
2023-01-30T16:17:59.036Z,28.20
2023-01-30T16:20:26.609Z,28.12
2023-01-30T16:22:54.374Z,27.35
2023-01-30T16:25:26.596Z,28.09
2023-01-30T16:27:55.541Z,28.54
2023-01-30T16:30:28.991Z,27.23
2023-01-30T16:32:57.328Z,27.36
2023-01-30T16:35:32.631Z,27.58
2023-01-30T16:38:02.186Z,27.62
2023-01-30T16:40:31.740Z,27.22
2023-01-30T16:43:02.529Z,27.52
2023-01-30T16:46:24.885Z,27.26
2023-01-30T16:48:52.108Z,30.21
2023-01-30T16:51:23.141Z,29.17
2023-01-30T16:53:58.653Z,28.98
2023-01-30T16:56:27.623Z,27.80
2023-01-30T16:59:00.290Z,27.00
2023-01-30T17:01:40.603Z,27.71
2023-01-30T17:04:18.955Z,29.14
2023-01-30T17:06:52.915Z,31.60
2023-01-30T17:09:47.253Z,30.52
2023-01-30T17:12:38.037Z,29.07
2023-01-30T17:15:41.514Z,28.87
2023-01-30T17:18:10.131Z,28.87
2023-01-30T17:20:41.891Z,29.45
2023-01-30T17:23:17.307Z,31.45
2023-01-30T17:25:49.364Z,30.44
2023-01-30T17:28:20.027Z,29.76
2023-01-30T17:30:48.371Z,30.59
2023-01-30T17:33:17.131Z,29.67
2023-01-30T17:35:45.391Z,29.42
2023-01-30T17:38:12.628Z,29.39
2023-01-30T17:40:40.410Z,29.67
2023-01-30T17:43:07.553Z,28.74
2023-01-30T17:45:36.241Z,28.65
2023-01-30T17:48:03.451Z,28.83
2023-01-30T17:50:32.074Z,28.73
2023-01-30T17:52:59.180Z,27.27
2023-01-30T17:55:26.512Z,27.56
2023-01-30T17:57:53.682Z,28.05
2023-01-30T18:00:22.347Z,29.32
2023-01-30T18:02:50.675Z,28.41
2023-01-30T18:05:17.863Z,28.20
2023-01-30T18:07:46.489Z,28.70
2023-01-30T18:10:18.945Z,28.30
2023-01-30T18:12:46.873Z,29.45
2023-01-30T18:15:16.719Z,28.97
2023-01-30T18:17:47.748Z,29.63
2023-01-30T18:20:18.265Z,30.36
2023-01-30T18:22:47.577Z,29.95
2023-01-30T18:25:15.840Z,29.78
2023-01-30T18:27:44.882Z,31.03
2023-01-30T18:30:16.859Z,31.41
2023-01-30T18:32:52.385Z,31.87
2023-01-30T18:35:20.096Z,32.39
2023-01-30T18:37:49.233Z,31.97
2023-01-30T18:40:16.420Z,30.94
2023-01-30T18:42:43.606Z,32.27
2023-01-30T18:45:11.334Z,33.01
2023-01-30T18:47:38.576Z,30.47
2023-01-30T18:50:06.805Z,30.80
2023-01-30T18:52:34.182Z,31.07
2023-01-30T18:55:02.853Z,31.32
2023-01-30T18:57:30.024Z,31.76
2023-01-30T18:59:57.311Z,31.50
2023-01-30T19:02:24.573Z,31.26
2023-01-30T19:04:51.807Z,32.13
2023-01-30T19:07:18.968Z,32.82
2023-01-30T19:09:46.142Z,32.50
2023-01-30T19:12:15.063Z,32.55
2023-01-30T19:14:42.225Z,32.40
2023-01-30T19:17:09.368Z,30.91
2023-01-30T19:19:36.658Z,32.06
2023-01-30T19:22:04.082Z,31.27
2023-01-30T19:24:31.284Z,31.41
2023-01-30T19:26:58.442Z,31.82
2023-01-30T19:29:27.181Z,31.92
2023-01-30T19:31:54.506Z,32.13
2023-01-30T19:34:21.944Z,33.50
2023-01-30T19:36:49.180Z,33.29
2023-01-30T19:39:16.502Z,32.09
2023-01-30T19:41:43.662Z,31.67
2023-01-30T19:44:12.608Z,31.78
2023-01-30T19:46:41.453Z,31.15
2023-01-30T19:49:10.967Z,32.51
2023-01-30T19:51:38.178Z,32.19
2023-01-30T19:54:09.122Z,31.67
2023-01-30T19:56:36.344Z,31.14
2023-01-30T19:59:04.268Z,31.33
2023-01-30T20:01:34.042Z,31.15
2023-01-30T20:04:03.872Z,31.76
2023-01-30T20:06:33.123Z,30.90
2023-01-30T20:09:03.901Z,31.16
2023-01-30T20:11:33.260Z,32.07
2023-01-30T20:14:00.682Z,32.77
2023-01-30T20:16:28.204Z,31.60
2023-01-30T20:18:57.505Z,31.99
2023-01-30T20:21:27.890Z,32.53
2023-01-30T20:23:56.187Z,32.09
2023-01-30T20:26:26.827Z,31.83
2023-01-30T20:28:56.443Z,31.96
2023-01-30T20:31:26.678Z,31.53
2023-01-30T20:33:54.541Z,31.36
2023-01-30T20:36:23.972Z,29.58
2023-01-30T20:38:54.063Z,28.09
2023-01-30T20:41:24.601Z,26.11
2023-01-30T20:43:54.503Z,27.60
2023-01-30T20:46:23.810Z,28.66
2023-01-30T20:48:54.550Z,30.38
2023-01-30T20:51:24.885Z,28.90
2023-01-30T20:53:56.135Z,20.88
2023-01-30T20:56:26.163Z,14.44
2023-01-30T20:58:54.009Z,15.57
2023-01-30T21:01:25.054Z,14.78
2023-01-30T21:03:54.657Z,14.75
2023-01-30T21:06:41.962Z,15.64
2023-01-30T21:09:14.633Z,16.56
2023-01-30T21:11:41.881Z,15.54
2023-01-30T21:14:08.986Z,15.60
2023-01-30T21:16:38.255Z,16.24
2023-01-30T21:19:11.135Z,18.60
2023-01-30T21:21:45.709Z,18.86
2023-01-30T21:24:17.531Z,19.95
2023-01-30T21:26:46.900Z,21.11
2023-01-30T21:29:18.389Z,19.53
2023-01-30T21:31:46.729Z,15.61
2023-01-30T21:34:15.327Z,20.58
2023-01-30T21:36:42.699Z,18.86
2023-01-30T21:39:15.125Z,17.23
2023-01-30T21:41:46.145Z,14.72
2023-01-30T21:44:14.524Z,14.23
2023-01-30T21:46:45.106Z,14.13
2023-01-30T21:49:13.283Z,13.53
2023-01-30T21:51:41.728Z,12.84
2023-01-30T21:54:09.726Z,11.71
2023-01-30T21:56:40.111Z,12.17
2023-01-30T21:59:10.222Z,12.27
2023-01-30T22:01:41.995Z,12.24
2023-01-30T22:04:11.785Z,10.83
2023-01-30T22:06:39.071Z,10.82
2023-01-30T22:09:06.702Z,10.37
2023-01-30T22:11:36.454Z,9.48
2023-01-30T22:14:05.303Z,8.50
2023-01-30T22:16:33.862Z,8.00
2023-01-30T22:19:03.758Z,7.13
2023-01-30T22:21:33.879Z,7.01
2023-01-30T22:24:02.763Z,7.03
2023-01-30T22:26:30.556Z,6.36
2023-01-30T22:29:00.051Z,6.02
2023-01-30T22:31:31.564Z,6.42
2023-01-30T22:33:58.872Z,6.10
2023-01-30T22:36:28.588Z,6.38
2023-01-30T22:38:56.297Z,6.55
2023-01-30T22:41:25.186Z,6.02
2023-01-30T22:43:54.734Z,5.92
2023-01-30T22:46:23.826Z,5.35
2023-01-30T22:48:53.044Z,5.78
2023-01-30T22:51:22.888Z,5.66
2023-01-30T22:53:52.882Z,5.45
2023-01-30T22:56:22.830Z,5.58
2023-01-30T22:58:50.543Z,5.67
2023-01-30T23:01:20.092Z,5.28
2023-01-30T23:03:49.213Z,5.10
2023-01-30T23:06:18.161Z,5.08
2023-01-30T23:08:47.785Z,4.69
2023-01-30T23:11:17.827Z,4.68
2023-01-30T23:13:47.104Z,4.49
2023-01-30T23:16:16.322Z,3.85
2023-01-30T23:18:43.576Z,3.52
2023-01-30T23:21:12.301Z,3.38
2023-01-30T23:23:41.601Z,3.03
2023-01-30T23:26:09.522Z,3.00
2023-01-30T23:28:37.775Z,3.27
2023-01-30T23:31:10.689Z,3.63
2023-01-30T23:33:38.824Z,3.40
2023-01-30T23:36:10.353Z,3.40
2023-01-30T23:38:37.882Z,3.39
2023-01-30T23:41:09.835Z,3.22
2023-01-30T23:43:37.961Z,3.41
2023-01-30T23:46:14.479Z,3.87
2023-01-30T23:48:42.061Z,3.54
2023-01-30T23:51:09.761Z,3.51
2023-01-30T23:53:37.423Z,3.74
2023-01-30T23:56:08.326Z,3.47
2023-01-30T23:58:36.504Z,3.40
